• Join FlightAware (Why Join?)
  • Login
  • US Flag 
10:14AM EDT


 

Airport Tracker/Info


-or-


 

Live Flight TrackerFlight Track Log ✈ CPZ5830 ✈ 08-Jul-2013 ✈ KDFW - KMSP

Flight Track Log - Related Links

Times and Time Zones

All times are in EDT time to prevent confusion due to time zone crossing. See the CPZ5830 flight status page for this flight to view local times or setup timezone preferences in your user account.

Time Position Orientation Groundspeed Altitude Reporting Facility
EDT Latitude Longitude Course Direction KTS MPH feet Rate Location/Type
05:23PM 32.8833 -97.0333 357° North 149 171 1,000  Level Dallas / Fort Worth TRACON
05:24PM 32.8500 -97.0167 157° South 178 205 2,300 1,680 Climbing Dallas / Fort Worth TRACON
05:25PM 32.8000 -97.0000 164° South 237 273 4,200 2,400 Climbing Dallas / Fort Worth TRACON
05:26PM 32.7667 -96.9333 121° Southeast 256 295 7,200 2,700 Climbing Dallas / Fort Worth TRACON
05:27PM 32.9688 -96.8000 North  Level FlightAware Approximate
05:27PM 32.7833 -96.8333 79° East 299 344 9,700  Level Dallas / Fort Worth TRACON
05:28PM 33.0903 -96.8015 357° North  Level FlightAware Approximate
05:29PM 33.2116 -96.8090 357° North  Level FlightAware Approximate
05:30PM 32.9906 -96.8117 North 342 394 14,300  Level Fort Worth Center
05:31PM 33.1056 -96.8158 358° North 367 422 16,400 1,860 Climbing Fort Worth Center
05:32PM 33.2014 -96.8175 359° North 378 435 18,100 1,800 Climbing Fort Worth Center
05:33PM 33.3225 -96.8217 358° North 389 448 20,100 1,740 Climbing Fort Worth Center
05:34PM 33.4228 -96.8236 359° North 395 455 21,600 1,440 Climbing Fort Worth Center
05:35PM 33.5481 -96.8203 North 409 471 23,000 1,380 Climbing Fort Worth Center
05:36PM 33.6647 -96.7844 14° North 414 476 24,400 1,320 Climbing Fort Worth Center
05:37PM 33.7750 -96.7364 20° North 414 476 25,700 1,200 Climbing Fort Worth Center
05:38PM 33.8875 -96.6878 20° North 425 489 26,900 1,020 Climbing Fort Worth Center
05:39PM 34.0039 -96.6394 19° North 425 489 27,800 900 Climbing Fort Worth Center
05:40PM 34.1058 -96.5733 28° Northeast 425 489 28,700 960 Climbing Fort Worth Center
05:41PM 34.2011 -96.4719 41° Northeast 425 489 29,800 1,080 Climbing Fort Worth Center
05:42PM 34.2942 -96.3753 41° Northeast 431 496 30,900 1,080 Climbing Fort Worth Center
05:43PM 34.3853 -96.2786 41° Northeast 436 502 32,000 1,080 Climbing Fort Worth Center
05:44PM 34.4803 -96.1792 41° Northeast 436 502 33,100 1,200 Climbing Fort Worth Center
05:45PM 34.5689 -96.0819 42° Northeast 436 502 34,400 900 Climbing Fort Worth Center
05:46PM 34.6769 -96.0297 22° Northeast 411 473 35,000 300 Climbing Fort Worth Center
05:47PM 34.7956 -96.0078 North 422 486 35,000  Level Fort Worth Center
05:48PM 34.9122 -95.9856 North 417 480 35,000  Level Fort Worth Center
05:49PM 35.0308 -95.9581 11° North 422 486 35,000  Level Fort Worth Center
05:50PM 35.1494 -95.9358 North 427 491 35,000  Level Fort Worth Center
05:52PM 35.3908 -95.8883 North 428 493 35,000  Level Kansas City Center
05:53PM 35.5081 -95.8642 10° North 426 490 35,000  Level Kansas City Center
05:54PM 35.6497 -95.8361 North 428 493 35,000  Level Kansas City Center
05:55PM 35.7683 -95.8125 North 430 495 35,000  Level Kansas City Center
05:56PM 35.8864 -95.7886 North 429 494 35,000  Level Kansas City Center
05:57PM 36.0047 -95.7656 North 427 491 35,000  Level Kansas City Center
05:58PM 36.1358 -95.7378 10° North 432 497 35,000  Level Kansas City Center
05:59PM 36.2556 -95.7144 North 436 502 35,000  Level Kansas City Center
06:00PM 36.3750 -95.6914 North 436 502 35,000  Level Kansas City Center
06:01PM 36.4964 -95.6667 North 440 506 35,000  Level Kansas City Center
06:02PM 36.6142 -95.6431 North 441 507 35,000  Level Kansas City Center
06:03PM 36.7611 -95.6119 10° North 441 507 35,000  Level Kansas City Center
06:04PM 36.8828 -95.5861 10° North 441 507 35,000  Level Kansas City Center
06:05PM 37.0056 -95.5606 North 442 509 35,000  Level Kansas City Center
06:06PM 37.1289 -95.5350 North 445 512 35,000  Level Kansas City Center
06:07PM 37.2508 -95.5094 North 445 512 35,000  Level Kansas City Center
06:08PM 37.3739 -95.4839 North 445 512 35,000  Level Kansas City Center
06:09PM 37.4972 -95.4575 10° North 448 516 35,000  Level Kansas City Center
06:10PM 37.6453 -95.4261 10° North 449 517 35,000  Level Kansas City Center
06:11PM 37.7697 -95.4011 North 450 518 35,000  Level Kansas City Center
06:12PM 37.8928 -95.3728 10° North 450 518 35,000  Level Kansas City Center
06:13PM 38.0278 -95.3461 North 450 518 35,000  Level Kansas City Center
06:14PM 38.1461 -95.3194 10° North 452 520 35,000  Level Kansas City Center
06:16PM 38.2639 -95.2919 10° North 450 518 35,000  Level Kansas City Center
06:17PM 38.4006 -95.2625 10° North 447 514 35,000  Level Kansas City Center
06:18PM 38.5189 -95.2367 10° North 449 517 35,000  Level Kansas City Center
06:19PM 38.6553 -95.2064 10° North 447 514 35,000  Level Kansas City Center
06:20PM 38.7733 -95.1825 North 448 516 35,000  Level Kansas City Center
06:21PM 38.9092 -95.1519 10° North 446 513 35,000  Level Kansas City Center
06:22PM 39.0431 -95.1228 10° North 449 517 35,000  Level Kansas City Center
06:23PM 39.1631 -95.0944 10° North 454 522 35,000  Level Kansas City Center
06:24PM 39.3014 -95.0653 North 461 531 35,000  Level Kansas City Center
06:25PM 39.4208 -95.0400 North 460 529 35,000  Level Kansas City Center
06:26PM 39.5408 -95.0136 10° North 459 528 35,000  Level Kansas City Center
06:27PM 39.6808 -94.9825 10° North 456 525 35,000  Level Kansas City Center
06:28PM 39.8006 -94.9553 10° North 457 526 35,000  Level Kansas City Center
06:29PM 39.9422 -94.9236 10° North 454 522 35,000  Level Kansas City Center
06:30PM 40.0589 -94.8969 10° North 452 520 35,000  Level Kansas City Center
06:31PM 40.1975 -94.8661 10° North 452 520 35,000  Level Kansas City Center
06:32PM 40.3158 -94.8381 10° North 450 518 35,000  Level Kansas City Center
06:33PM 40.3850 -94.8214 10° North 454 522 35,000  Level Minneapolis Center
06:34PM 40.5089 -94.7931 10° North 454 522 35,000  Level Minneapolis Center
06:35PM 40.6578 -94.7592 10° North 453 521 35,000  Level Minneapolis Center
06:36PM 40.7811 -94.7297 10° North 453 521 35,000  Level Minneapolis Center
06:37PM 40.9297 -94.6958 10° North 454 522 35,000  Level Minneapolis Center
06:38PM 41.0292 -94.6722 10° North 454 522 35,000  Level Minneapolis Center
06:39PM 41.1781 -94.6381 10° North 455 524 35,000  Level Minneapolis Center
06:40PM 41.3025 -94.6083 10° North 454 522 35,000  Level Minneapolis Center
06:41PM 41.4264 -94.5794 10° North 454 522 35,000  Level Minneapolis Center
06:42PM 41.5514 -94.5497 10° North 456 525 35,000  Level Minneapolis Center
06:43PM 41.7239 -94.5092 10° North 452 520 35,000  Level Minneapolis Center
06:44PM 41.8494 -94.4800 10° North 457 526 35,000 -120 Level Minneapolis Center
06:46PM 41.9744 -94.4500 10° North 457 526 34,800 -660 Descending Minneapolis Center
06:47PM 42.1222 -94.4131 11° North 453 521 33,600 -900 Descending Minneapolis Center
06:48PM 42.2453 -94.3847 10° North 450 518 33,000 -300 Descending Minneapolis Center
06:49PM 42.3931 -94.3389 13° North 455 524 33,000  Level Minneapolis Center
06:50PM 42.4911 -94.2536 33° Northeast 464 534 33,000  Level Minneapolis Center
06:51PM 42.5986 -94.1600 33° Northeast 465 535 33,000  Level Minneapolis Center
06:52PM 42.7500 -94.0269 33° Northeast 466 536 33,000  Level Minneapolis Center
06:53PM 42.8567 -93.9303 34° Northeast 465 535 33,000  Level Minneapolis Center
06:54PM 42.9653 -93.8344 33° Northeast 468 539 33,000  Level Minneapolis Center
06:55PM 43.0717 -93.7403 33° Northeast 463 533 33,000  Level Minneapolis Center
06:56PM 43.1781 -93.6447 33° Northeast 461 531 33,000 -180 Level Minneapolis Center
06:57PM 43.2636 -93.5694 33° Northeast 459 528 32,700 -2,100 Descending Minneapolis Center
06:58PM 43.4347 -93.5381 North 447 514 28,700 -3,480 Descending Minneapolis Center
06:59PM 43.5703 -93.5258 North 447 514 25,500 -2,940 Descending Minneapolis Center
07:00PM 43.6897 -93.5139 North 436 502 22,600 -2,760 Descending Minneapolis Center
07:01PM 43.8028 -93.5033 North 414 476 19,900 -2,340 Descending Minneapolis Center
07:03PM 43.9078 -93.4936 North 387 445 17,400 -2,400 Descending Minneapolis Center
07:04PM 44.0289 -93.4814 North 367 422 14,500 -2,880 Descending Minneapolis Center
07:05PM 44.1475 -93.4703 North 357 411 11,500 -1,740 Descending Minneapolis Center
07:06PM 44.2214 -93.4628 North 335 386 11,000 -300 Descending Minneapolis Center
07:07PM 44.3128 -93.4058 24° Northeast 308 354 11,000 -660 Level Minneapolis Center
07:08PM 44.3900 -93.3631 22° Northeast 299 344 9,700 -1,500 Descending Minneapolis Center
07:09PM 44.4644 -93.3231 21° North 288 331 7,900 -1,320 Descending Minneapolis Center
07:10PM 44.5356 -93.2861 20° North 275 316 7,000 -840 Descending Minneapolis Center
07:11PM 44.6072 -93.2481 21° North 232 267 6,200 -600 Descending Minneapolis Center
07:12PM 44.6561 -93.2222 21° North 192 221 5,800 -1,020 Descending Minneapolis Center
07:13PM 44.7036 -93.1967 21° North 186 214 4,100 -1,680 Descending Minneapolis Center